createdAt,value
2023-01-20T04:47:36.042Z,1.77
2023-01-20T04:50:40.328Z,1.83
2023-01-20T04:53:42.771Z,1.92
2023-01-20T04:56:45.394Z,2.08
2023-01-20T04:59:47.820Z,2.08
2023-01-20T05:02:51.027Z,2.20
2023-01-20T05:05:54.326Z,2.27
2023-01-20T05:08:57.263Z,2.41
2023-01-20T05:11:59.782Z,2.37
2023-01-20T05:15:02.658Z,2.44
2023-01-20T05:18:05.995Z,2.39
2023-01-20T05:21:08.942Z,2.44
2023-01-20T05:24:11.941Z,2.48
2023-01-20T05:27:14.682Z,2.35
2023-01-20T05:30:17.183Z,2.42
2023-01-20T05:33:20.218Z,2.51
2023-01-20T05:36:22.680Z,2.52
2023-01-20T05:39:25.510Z,2.54
2023-01-20T05:42:28.386Z,2.53
2023-01-20T05:45:32.455Z,2.67
2023-01-20T05:48:34.995Z,2.65
2023-01-20T05:51:37.882Z,2.75
2023-01-20T05:54:40.318Z,2.83
2023-01-20T05:57:43.098Z,2.79
2023-01-20T06:00:45.517Z,2.90
2023-01-20T06:03:48.483Z,3.01
2023-01-20T06:06:50.836Z,2.99
2023-01-20T06:09:53.508Z,3.05
2023-01-20T06:12:56.682Z,3.04
2023-01-20T06:15:59.445Z,3.00
2023-01-20T06:19:01.965Z,3.12
2023-01-20T06:22:04.717Z,3.09
2023-01-20T06:25:07.461Z,2.99
2023-01-20T06:28:10.185Z,3.03
2023-01-20T06:31:15.395Z,3.13
2023-01-20T06:34:18.230Z,3.09
2023-01-20T06:37:20.654Z,3.08
2023-01-20T06:40:24.234Z,3.07
2023-01-20T06:43:29.869Z,3.07
2023-01-20T06:46:32.619Z,3.07
2023-01-20T06:49:35.043Z,3.14
2023-01-20T06:52:38.012Z,3.24
2023-01-20T06:55:40.641Z,3.24
2023-01-20T06:58:43.410Z,3.27
2023-01-20T07:01:47.311Z,3.28
2023-01-20T07:04:52.774Z,3.33
2023-01-20T07:07:55.188Z,3.35
2023-01-20T07:10:57.937Z,3.33
2023-01-20T07:14:01.152Z,3.33
2023-01-20T07:17:04.055Z,3.34
2023-01-20T07:20:07.058Z,3.36
2023-01-20T07:23:09.854Z,3.45
2023-01-20T07:26:18.370Z,3.58
2023-01-20T07:29:21.255Z,3.55
2023-01-20T07:32:23.978Z,3.49
2023-01-20T07:35:28.055Z,3.49
2023-01-20T07:38:30.648Z,3.53
2023-01-20T07:41:37.353Z,3.47
2023-01-20T07:44:39.957Z,3.48
2023-01-20T07:47:42.840Z,3.50
2023-01-20T07:50:45.325Z,3.45
2023-01-20T07:53:51.554Z,3.54
2023-01-20T07:56:54.238Z,3.61
2023-01-20T07:59:57.177Z,3.65
2023-01-20T08:02:59.550Z,3.61
2023-01-20T08:06:07.459Z,3.55
2023-01-20T08:09:12.193Z,3.51
2023-01-20T08:12:14.978Z,3.62
2023-01-20T08:15:17.694Z,3.52
2023-01-20T08:18:20.784Z,3.54
2023-01-20T08:21:26.160Z,3.64
2023-01-20T08:24:29.457Z,3.57
2023-01-20T08:27:32.191Z,3.70
2023-01-20T08:30:35.295Z,3.71
2023-01-20T08:33:38.705Z,3.55
2023-01-20T08:36:41.626Z,3.62
2023-01-20T08:39:44.374Z,3.58
2023-01-20T08:42:47.231Z,3.65
2023-01-20T08:46:01.805Z,3.68
2023-01-20T08:49:09.350Z,3.72
2023-01-20T08:52:12.596Z,3.68
2023-01-20T08:55:15.572Z,3.55
2023-01-20T08:58:18.152Z,3.67
2023-01-20T09:01:24.304Z,3.61
2023-01-20T09:04:26.798Z,3.74
2023-01-20T09:07:29.906Z,3.75
2023-01-20T09:10:33.787Z,3.77
2023-01-20T09:13:36.703Z,3.80
2023-01-20T09:16:40.183Z,3.87
2023-01-20T09:19:42.939Z,3.84
2023-01-20T09:22:45.350Z,3.85
2023-01-20T09:25:48.329Z,3.77
2023-01-20T09:28:51.543Z,3.76
2023-01-20T09:31:59.286Z,3.86
2023-01-20T09:35:02.208Z,3.92
2023-01-20T09:38:24.546Z,3.84
2023-01-20T09:41:48.412Z,3.80
2023-01-20T09:45:25.140Z,3.98
2023-01-20T09:49:07.024Z,3.89
2023-01-20T09:52:48.282Z,3.99
2023-01-20T09:55:56.755Z,4.13
2023-01-20T09:59:14.854Z,4.21
2023-01-20T10:02:23.725Z,4.22
2023-01-20T10:05:33.881Z,4.25
2023-01-20T10:08:59.638Z,4.39
2023-01-20T10:12:18.162Z,4.39
2023-01-20T10:15:20.535Z,4.39
2023-01-20T10:18:48.112Z,4.32
2023-01-20T10:22:15.784Z,4.37
2023-01-20T10:25:41.156Z,4.36
2023-01-20T10:28:49.564Z,4.50
2023-01-20T10:31:59.977Z,4.49
2023-01-20T10:35:22.382Z,4.54
2023-01-20T10:38:40.928Z,4.71
2023-01-20T10:41:52.448Z,4.77
2023-01-20T10:44:55.655Z,4.81
2023-01-20T10:48:19.776Z,4.79
2023-01-20T10:52:07.145Z,5.07
2023-01-20T10:55:31.189Z,4.98
2023-01-20T10:58:37.749Z,5.07
2023-01-20T11:01:41.736Z,4.96
2023-01-20T11:04:49.454Z,5.01
2023-01-20T11:07:54.161Z,4.96
2023-01-20T11:11:00.025Z,4.91
2023-01-20T11:14:03.868Z,5.01
2023-01-20T11:17:12.843Z,4.92
2023-01-20T11:20:21.454Z,5.08
2023-01-20T11:23:37.851Z,5.12
2023-01-20T11:26:40.339Z,5.12
2023-01-20T11:29:48.800Z,5.05
2023-01-20T11:33:18.006Z,4.94
2023-01-20T11:36:23.854Z,4.95
2023-01-20T11:39:30.734Z,4.91
2023-01-20T11:42:44.911Z,4.76
2023-01-20T11:45:47.336Z,4.71
2023-01-20T11:48:50.297Z,4.75
2023-01-20T11:51:55.493Z,4.70
2023-01-20T11:55:10.127Z,4.65
2023-01-20T11:58:18.709Z,4.72
2023-01-20T12:01:27.647Z,4.59
2023-01-20T12:04:52.845Z,4.48
2023-01-20T12:07:56.548Z,4.38
2023-01-20T12:11:03.255Z,4.35
2023-01-20T12:14:22.987Z,4.28
2023-01-20T12:17:47.470Z,4.28
2023-01-20T12:21:00.127Z,4.21
2023-01-20T12:24:25.023Z,4.19
2023-01-20T12:27:33.849Z,4.02
2023-01-20T12:30:59.367Z,4.05
2023-01-20T12:34:03.534Z,4.15
2023-01-20T12:37:45.483Z,4.21
2023-01-20T12:40:51.664Z,4.11
2023-01-20T12:44:15.730Z,4.04
2023-01-20T12:47:25.712Z,4.06
2023-01-20T12:50:34.912Z,4.01
2023-01-20T12:54:00.780Z,4.03
2023-01-20T12:57:35.679Z,4.00
2023-01-20T13:00:58.403Z,3.94
2023-01-20T13:04:26.114Z,3.74
2023-01-20T13:07:47.781Z,3.64
2023-01-20T13:11:04.124Z,3.58
2023-01-20T13:14:12.999Z,3.45
2023-01-20T13:17:36.824Z,3.34
2023-01-20T13:20:42.902Z,3.21
2023-01-20T13:23:46.272Z,3.09
2023-01-20T13:26:49.682Z,3.06
2023-01-20T13:29:56.764Z,3.01
2023-01-20T13:33:13.188Z,2.95
2023-01-20T13:36:17.863Z,2.86
2023-01-20T13:39:41.395Z,2.88
2023-01-20T13:42:44.403Z,2.95
2023-01-20T13:45:46.825Z,2.99
2023-01-20T13:49:20.474Z,2.91
2023-01-20T13:52:52.491Z,2.84
2023-01-20T13:55:58.218Z,2.80
2023-01-20T13:59:00.939Z,2.92
2023-01-20T14:02:18.454Z,2.75
2023-01-20T14:05:30.596Z,2.83
2023-01-20T14:08:42.322Z,2.91
2023-01-20T14:11:57.611Z,2.93
2023-01-20T14:15:00.815Z,2.82
2023-01-20T14:18:04.834Z,2.74
2023-01-20T14:21:16.482Z,2.70
2023-01-20T14:24:36.455Z,2.65
2023-01-20T14:27:42.017Z,2.62
2023-01-20T14:30:44.838Z,2.56
2023-01-20T14:34:01.937Z,2.44
2023-01-20T14:37:39.403Z,2.60
2023-01-20T14:40:43.004Z,2.62
2023-01-20T14:43:45.661Z,2.57
2023-01-20T14:46:51.272Z,2.48
2023-01-20T14:49:54.895Z,2.54
2023-01-20T14:52:57.932Z,2.52
2023-01-20T14:56:02.890Z,2.42
2023-01-20T14:59:15.832Z,2.48
2023-01-20T15:02:29.285Z,2.47
2023-01-20T15:05:37.542Z,2.57
2023-01-20T15:08:40.861Z,2.49
2023-01-20T15:11:45.848Z,2.39
2023-01-20T15:15:08.743Z,2.54
2023-01-20T15:18:11.301Z,2.56
2023-01-20T15:21:45.939Z,2.48
2023-01-20T15:24:49.621Z,2.34
2023-01-20T15:27:54.117Z,2.35
2023-01-20T15:30:59.092Z,2.34
2023-01-20T15:34:02.327Z,2.42
2023-01-20T15:37:17.041Z,2.32
2023-01-20T15:40:23.671Z,2.36
2023-01-20T15:43:26.473Z,2.27
2023-01-20T15:46:29.163Z,2.25
2023-01-20T15:49:31.544Z,2.19
2023-01-20T15:52:34.368Z,2.15
2023-01-20T15:55:42.281Z,2.24
2023-01-20T15:58:46.791Z,2.24
2023-01-20T16:01:52.082Z,2.18
2023-01-20T16:04:54.676Z,2.23
2023-01-20T16:07:57.144Z,2.26
2023-01-20T16:10:59.821Z,2.32
2023-01-20T16:14:02.260Z,2.24
2023-01-20T16:17:12.862Z,2.17
2023-01-20T16:20:22.394Z,2.38
2023-01-20T16:23:25.134Z,2.40
2023-01-20T16:26:29.013Z,2.24
2023-01-20T16:29:31.646Z,2.15
